sensor_id;sensor_type;location;lat;lon;timestamp;pressure;altitude;pressure_sealevel;temperature;humidity
23446;BME280;11895;48.738;9.320;2023-02-22T00:02:01;98716.19;;;7.90;100.00
23446;BME280;11895;48.738;9.320;2023-02-22T00:04:39;98719.13;;;7.83;100.00
23446;BME280;11895;48.738;9.320;2023-02-22T00:07:07;98715.47;;;7.85;100.00
23446;BME280;11895;48.738;9.320;2023-02-22T00:09:34;98720.84;;;7.85;100.00
23446;BME280;11895;48.738;9.320;2023-02-22T00:12:01;98713.59;;;7.87;100.00
23446;BME280;11895;48.738;9.320;2023-02-22T00:14:29;98713.84;;;7.81;100.00
23446;BME280;11895;48.738;9.320;2023-02-22T00:16:56;98703.34;;;7.75;100.00
23446;BME280;11895;48.738;9.320;2023-02-22T00:19:26;98711.88;;;7.61;100.00
23446;BME280;11895;48.738;9.320;2023-02-22T00:21:56;98717.31;;;7.60;100.00
23446;BME280;11895;48.738;9.320;2023-02-22T00:24:24;98713.31;;;7.46;100.00
23446;BME280;11895;48.738;9.320;2023-02-22T00:26:54;98706.31;;;7.42;100.00
23446;BME280;11895;48.738;9.320;2023-02-22T00:29:25;98712.38;;;7.22;100.00
23446;BME280;11895;48.738;9.320;2023-02-22T00:31:52;98708.34;;;7.36;100.00
23446;BME280;11895;48.738;9.320;2023-02-22T00:34:20;98706.84;;;7.27;100.00
23446;BME280;11895;48.738;9.320;2023-02-22T00:36:50;98712.44;;;7.21;100.00
23446;BME280;11895;48.738;9.320;2023-02-22T00:39:17;98704.41;;;7.19;100.00
23446;BME280;11895;48.738;9.320;2023-02-22T00:41:45;98700.34;;;7.34;100.00
23446;BME280;11895;48.738;9.320;2023-02-22T00:44:12;98705.19;;;7.23;100.00
23446;BME280;11895;48.738;9.320;2023-02-22T00:46:40;98712.28;;;7.26;100.00
23446;BME280;11895;48.738;9.320;2023-02-22T00:49:08;98702.09;;;7.35;100.00
23446;BME280;11895;48.738;9.320;2023-02-22T00:51:35;98703.13;;;7.31;100.00
23446;BME280;11895;48.738;9.320;2023-02-22T00:54:02;98707.47;;;7.35;100.00
23446;BME280;11895;48.738;9.320;2023-02-22T00:56:33;98701.88;;;7.41;100.00
23446;BME280;11895;48.738;9.320;2023-02-22T00:59:02;98703.56;;;7.19;100.00
23446;BME280;11895;48.738;9.320;2023-02-22T01:01:31;98695.28;;;7.25;100.00
23446;BME280;11895;48.738;9.320;2023-02-22T01:03:58;98696.44;;;7.18;100.00
23446;BME280;11895;48.738;9.320;2023-02-22T01:06:25;98694.56;;;7.21;100.00
23446;BME280;11895;48.738;9.320;2023-02-22T01:08:52;98685.63;;;7.21;100.00
23446;BME280;11895;48.738;9.320;2023-02-22T01:11:20;98688.25;;;7.22;100.00
23446;BME280;11895;48.738;9.320;2023-02-22T01:13:48;98685.63;;;7.21;100.00
23446;BME280;11895;48.738;9.320;2023-02-22T01:16:16;98681.84;;;6.75;100.00
23446;BME280;11895;48.738;9.320;2023-02-22T01:18:43;98687.50;;;6.66;100.00
23446;BME280;11895;48.738;9.320;2023-02-22T01:21:10;98689.06;;;6.45;100.00
23446;BME280;11895;48.738;9.320;2023-02-22T01:23:40;98691.41;;;6.56;100.00
23446;BME280;11895;48.738;9.320;2023-02-22T01:26:10;98698.69;;;6.51;100.00
23446;BME280;11895;48.738;9.320;2023-02-22T01:28:38;98688.94;;;6.50;100.00
23446;BME280;11895;48.738;9.320;2023-02-22T01:31:05;98686.88;;;6.58;100.00
23446;BME280;11895;48.738;9.320;2023-02-22T01:33:32;98686.47;;;6.70;100.00
23446;BME280;11895;48.738;9.320;2023-02-22T01:36:00;98690.22;;;6.36;100.00
23446;BME280;11895;48.738;9.320;2023-02-22T01:38:27;98684.00;;;6.36;100.00
23446;BME280;11895;48.738;9.320;2023-02-22T01:40:54;98682.84;;;6.44;100.00
23446;BME280;11895;48.738;9.320;2023-02-22T01:43:29;98675.59;;;6.20;100.00
23446;BME280;11895;48.738;9.320;2023-02-22T01:46:21;98679.72;;;6.30;100.00
23446;BME280;11895;48.738;9.320;2023-02-22T01:49:03;98685.16;;;6.55;100.00
23446;BME280;11895;48.738;9.320;2023-02-22T01:51:42;98677.66;;;6.66;100.00
23446;BME280;11895;48.738;9.320;2023-02-22T01:57:09;98668.44;;;6.75;100.00
23446;BME280;11895;48.738;9.320;2023-02-22T01:59:45;98659.28;;;6.56;100.00
23446;BME280;11895;48.738;9.320;2023-02-22T02:02:18;98658.06;;;6.66;100.00
23446;BME280;11895;48.738;9.320;2023-02-22T02:04:48;98651.88;;;6.64;100.00
23446;BME280;11895;48.738;9.320;2023-02-22T02:07:19;98653.63;;;6.65;100.00
23446;BME280;11895;48.738;9.320;2023-02-22T02:10:00;98646.84;;;6.55;100.00
23446;BME280;11895;48.738;9.320;2023-02-22T02:12:34;98651.25;;;6.56;100.00
23446;BME280;11895;48.738;9.320;2023-02-22T02:15:32;98644.53;;;6.44;100.00
23446;BME280;11895;48.738;9.320;2023-02-22T02:18:04;98646.34;;;6.14;100.00
23446;BME280;11895;48.738;9.320;2023-02-22T02:24:11;98648.06;;;6.44;100.00
23446;BME280;11895;48.738;9.320;2023-02-22T02:27:27;98646.19;;;6.47;100.00
23446;BME280;11895;48.738;9.320;2023-02-22T02:33:15;98634.91;;;6.38;100.00
23446;BME280;11895;48.738;9.320;2023-02-22T02:35:52;98640.63;;;5.98;100.00
23446;BME280;11895;48.738;9.320;2023-02-22T02:41:44;98630.00;;;6.25;100.00
23446;BME280;11895;48.738;9.320;2023-02-22T02:44:21;98624.28;;;6.35;100.00
23446;BME280;11895;48.738;9.320;2023-02-22T02:47:02;98619.16;;;6.29;100.00
23446;BME280;11895;48.738;9.320;2023-02-22T02:49:44;98615.25;;;6.39;100.00
23446;BME280;11895;48.738;9.320;2023-02-22T02:52:20;98606.19;;;6.43;100.00
23446;BME280;11895;48.738;9.320;2023-02-22T02:54:50;98610.97;;;6.34;100.00
23446;BME280;11895;48.738;9.320;2023-02-22T02:57:19;98606.50;;;6.34;100.00
23446;BME280;11895;48.738;9.320;2023-02-22T02:59:47;98614.84;;;6.24;100.00
23446;BME280;11895;48.738;9.320;2023-02-22T03:11:10;98594.44;;;6.21;100.00
23446;BME280;11895;48.738;9.320;2023-02-22T03:14:10;98595.97;;;6.28;100.00
23446;BME280;11895;48.738;9.320;2023-02-22T03:23:26;98578.78;;;6.09;100.00
23446;BME280;11895;48.738;9.320;2023-02-22T03:26:08;98580.63;;;6.07;100.00
23446;BME280;11895;48.738;9.320;2023-02-22T03:28:42;98579.63;;;6.11;100.00
23446;BME280;11895;48.738;9.320;2023-02-22T03:31:17;98580.34;;;6.16;100.00
23446;BME280;11895;48.738;9.320;2023-02-22T03:33:52;98576.00;;;6.12;100.00
23446;BME280;11895;48.738;9.320;2023-02-22T03:36:35;98581.28;;;6.13;100.00
23446;BME280;11895;48.738;9.320;2023-02-22T03:39:11;98580.91;;;5.98;100.00
23446;BME280;11895;48.738;9.320;2023-02-22T03:41:48;98581.00;;;5.95;100.00
23446;BME280;11895;48.738;9.320;2023-02-22T03:44:27;98584.44;;;6.00;100.00
23446;BME280;11895;48.738;9.320;2023-02-22T03:46:58;98578.19;;;5.99;100.00
23446;BME280;11895;48.738;9.320;2023-02-22T03:50:15;98587.59;;;5.83;100.00
23446;BME280;11895;48.738;9.320;2023-02-22T03:52:19;98585.53;;;5.63;100.00
23446;BME280;11895;48.738;9.320;2023-02-22T03:54:51;98582.72;;;5.38;100.00
23446;BME280;11895;48.738;9.320;2023-02-22T03:57:29;98586.47;;;5.62;100.00
23446;BME280;11895;48.738;9.320;2023-02-22T04:00:07;98587.56;;;5.55;100.00
23446;BME280;11895;48.738;9.320;2023-02-22T04:02:41;98585.63;;;5.60;100.00
23446;BME280;11895;48.738;9.320;2023-02-22T04:05:14;98584.59;;;5.64;100.00
23446;BME280;11895;48.738;9.320;2023-02-22T04:07:42;98580.09;;;5.66;100.00
23446;BME280;11895;48.738;9.320;2023-02-22T04:10:12;98585.25;;;5.72;100.00
23446;BME280;11895;48.738;9.320;2023-02-22T04:12:41;98584.97;;;5.81;100.00
23446;BME280;11895;48.738;9.320;2023-02-22T04:15:12;98585.78;;;5.83;100.00
23446;BME280;11895;48.738;9.320;2023-02-22T04:17:43;98583.38;;;5.76;100.00
23446;BME280;11895;48.738;9.320;2023-02-22T04:20:14;98583.50;;;5.71;100.00
23446;BME280;11895;48.738;9.320;2023-02-22T04:22:55;98579.72;;;5.78;100.00
23446;BME280;11895;48.738;9.320;2023-02-22T04:25:23;98580.19;;;5.63;100.00
23446;BME280;11895;48.738;9.320;2023-02-22T04:27:53;98579.22;;;5.65;100.00
23446;BME280;11895;48.738;9.320;2023-02-22T04:30:33;98577.44;;;5.66;100.00
23446;BME280;11895;48.738;9.320;2023-02-22T04:33:02;98574.78;;;5.66;100.00
23446;BME280;11895;48.738;9.320;2023-02-22T04:35:30;98579.72;;;5.78;100.00
23446;BME280;11895;48.738;9.320;2023-02-22T04:38:02;98573.84;;;5.67;100.00
23446;BME280;11895;48.738;9.320;2023-02-22T04:40:31;98572.03;;;5.67;100.00
23446;BME280;11895;48.738;9.320;2023-02-22T04:42:59;98575.66;;;5.65;100.00
23446;BME280;11895;48.738;9.320;2023-02-22T04:45:28;98574.72;;;5.38;100.00
23446;BME280;11895;48.738;9.320;2023-02-22T04:47:56;98572.56;;;4.88;100.00
23446;BME280;11895;48.738;9.320;2023-02-22T04:50:24;98576.31;;;5.14;100.00
23446;BME280;11895;48.738;9.320;2023-02-22T04:52:51;98569.97;;;5.18;100.00
23446;BME280;11895;48.738;9.320;2023-02-22T04:55:19;98565.34;;;5.23;100.00
23446;BME280;11895;48.738;9.320;2023-02-22T04:57:47;98572.38;;;5.27;100.00
23446;BME280;11895;48.738;9.320;2023-02-22T05:00:18;98566.22;;;5.24;100.00
23446;BME280;11895;48.738;9.320;2023-02-22T05:02:49;98567.38;;;5.15;100.00
23446;BME280;11895;48.738;9.320;2023-02-22T05:05:19;98567.63;;;5.06;100.00
23446;BME280;11895;48.738;9.320;2023-02-22T05:07:48;98565.06;;;4.70;100.00
23446;BME280;11895;48.738;9.320;2023-02-22T05:10:16;98565.47;;;4.87;100.00
23446;BME280;11895;48.738;9.320;2023-02-22T05:12:44;98576.50;;;4.75;100.00
23446;BME280;11895;48.738;9.320;2023-02-22T05:15:18;98567.16;;;4.23;100.00
23446;BME280;11895;48.738;9.320;2023-02-22T05:17:47;98563.25;;;4.71;100.00
23446;BME280;11895;48.738;9.320;2023-02-22T05:20:28;98561.13;;;4.83;100.00
23446;BME280;11895;48.738;9.320;2023-02-22T05:22:58;98563.50;;;4.94;100.00
23446;BME280;11895;48.738;9.320;2023-02-22T05:25:27;98572.34;;;4.96;100.00
23446;BME280;11895;48.738;9.320;2023-02-22T05:27:57;98561.22;;;5.13;100.00
23446;BME280;11895;48.738;9.320;2023-02-22T05:30:30;98559.06;;;4.95;100.00
23446;BME280;11895;48.738;9.320;2023-02-22T05:33:00;98555.19;;;5.05;100.00
23446;BME280;11895;48.738;9.320;2023-02-22T05:35:29;98556.06;;;5.05;100.00
23446;BME280;11895;48.738;9.320;2023-02-22T05:37:57;98551.13;;;4.92;100.00
23446;BME280;11895;48.738;9.320;2023-02-22T05:40:29;98556.16;;;5.02;100.00
23446;BME280;11895;48.738;9.320;2023-02-22T05:42:58;98553.19;;;5.13;100.00
23446;BME280;11895;48.738;9.320;2023-02-22T05:45:27;98552.16;;;5.17;100.00
23446;BME280;11895;48.738;9.320;2023-02-22T05:47:56;98553.19;;;5.13;100.00
23446;BME280;11895;48.738;9.320;2023-02-22T05:50:24;98554.81;;;5.17;100.00
23446;BME280;11895;48.738;9.320;2023-02-22T05:52:53;98553.28;;;5.10;100.00
23446;BME280;11895;48.738;9.320;2023-02-22T05:55:22;98554.75;;;5.20;100.00
23446;BME280;11895;48.738;9.320;2023-02-22T05:57:51;98545.59;;;5.29;100.00
23446;BME280;11895;48.738;9.320;2023-02-22T06:00:25;98543.88;;;5.26;100.00
23446;BME280;11895;48.738;9.320;2023-02-22T06:03:02;98550.88;;;5.30;100.00
23446;BME280;11895;48.738;9.320;2023-02-22T06:05:32;98543.88;;;5.26;100.00
23446;BME280;11895;48.738;9.320;2023-02-22T06:08:02;98548.41;;;5.24;100.00
23446;BME280;11895;48.738;9.320;2023-02-22T06:10:32;98537.06;;;5.16;100.00
23446;BME280;11895;48.738;9.320;2023-02-22T06:13:01;98551.06;;;5.24;100.00
23446;BME280;11895;48.738;9.320;2023-02-22T06:15:30;98543.13;;;5.23;100.00
23446;BME280;11895;48.738;9.320;2023-02-22T06:17:58;98547.41;;;5.28;100.00
23446;BME280;11895;48.738;9.320;2023-02-22T06:20:29;98542.88;;;5.30;100.00
23446;BME280;11895;48.738;9.320;2023-02-22T06:22:58;98549.94;;;5.33;100.00
23446;BME280;11895;48.738;9.320;2023-02-22T06:25:28;98550.69;;;5.38;100.00
23446;BME280;11895;48.738;9.320;2023-02-22T06:28:00;98543.63;;;5.35;100.00
23446;BME280;11895;48.738;9.320;2023-02-22T06:30:29;98548.97;;;5.35;100.00
23446;BME280;11895;48.738;9.320;2023-02-22T06:32:57;98542.84;;;5.32;100.00
23446;BME280;11895;48.738;9.320;2023-02-22T06:35:25;98545.19;;;5.43;100.00
23446;BME280;11895;48.738;9.320;2023-02-22T06:37:54;98548.00;;;5.38;100.00
23446;BME280;11895;48.738;9.320;2023-02-22T06:40:22;98547.03;;;5.40;100.00
23446;BME280;11895;48.738;9.320;2023-02-22T06:42:49;98545.59;;;5.58;100.00
23446;BME280;11895;48.738;9.320;2023-02-22T06:45:18;98548.06;;;5.64;100.00
23446;BME280;11895;48.738;9.320;2023-02-22T06:47:46;98549.66;;;5.70;100.00
23446;BME280;11895;48.738;9.320;2023-02-22T06:50:23;98560.06;;;5.51;100.00
23446;BME280;11895;48.738;9.320;2023-02-22T06:52:52;98559.22;;;5.79;100.00
23446;BME280;11895;48.738;9.320;2023-02-22T06:55:23;98557.81;;;5.65;100.00
23446;BME280;11895;48.738;9.320;2023-02-22T06:57:52;98564.66;;;5.76;100.00
23446;BME280;11895;48.738;9.320;2023-02-22T07:00:21;98564.25;;;5.88;100.00
23446;BME280;11895;48.738;9.320;2023-02-22T07:02:54;98555.25;;;5.92;100.00
23446;BME280;11895;48.738;9.320;2023-02-22T07:05:24;98556.00;;;5.67;100.00
23446;BME280;11895;48.738;9.320;2023-02-22T07:07:58;98557.22;;;5.56;100.00
23446;BME280;11895;48.738;9.320;2023-02-22T07:10:31;98559.91;;;5.56;100.00
23446;BME280;11895;48.738;9.320;2023-02-22T07:13:00;98560.88;;;5.83;100.00
23446;BME280;11895;48.738;9.320;2023-02-22T07:15:30;98557.59;;;6.03;100.00
23446;BME280;11895;48.738;9.320;2023-02-22T07:17:59;98555.19;;;6.22;100.00
23446;BME280;11895;48.738;9.320;2023-02-22T07:20:29;98549.28;;;6.38;100.00
23446;BME280;11895;48.738;9.320;2023-02-22T07:22:57;98550.72;;;6.49;100.00
23446;BME280;11895;48.738;9.320;2023-02-22T07:25:26;98547.03;;;6.51;100.00
23446;BME280;11895;48.738;9.320;2023-02-22T07:27:53;98549.03;;;6.71;100.00
23446;BME280;11895;48.738;9.320;2023-02-22T07:30:24;98552.06;;;6.87;100.00
23446;BME280;11895;48.738;9.320;2023-02-22T07:33:01;98547.56;;;6.87;100.00
23446;BME280;11895;48.738;9.320;2023-02-22T07:35:45;98551.38;;;6.80;100.00
23446;BME280;11895;48.738;9.320;2023-02-22T07:38:16;98541.28;;;6.88;100.00
23446;BME280;11895;48.738;9.320;2023-02-22T07:40:45;98545.38;;;6.99;100.00
23446;BME280;11895;48.738;9.320;2023-02-22T07:43:20;98547.25;;;6.97;100.00
23446;BME280;11895;48.738;9.320;2023-02-22T07:45:51;98543.34;;;7.05;100.00
23446;BME280;11895;48.738;9.320;2023-02-22T07:48:21;98557.97;;;7.20;100.00
23446;BME280;11895;48.738;9.320;2023-02-22T07:50:51;98548.47;;;7.35;100.00
23446;BME280;11895;48.738;9.320;2023-02-22T07:53:27;98551.13;;;7.36;100.00
23446;BME280;11895;48.738;9.320;2023-02-22T07:55:57;98546.81;;;7.56;100.00
23446;BME280;11895;48.738;9.320;2023-02-22T07:58:27;98547.84;;;7.75;100.00
23446;BME280;11895;48.738;9.320;2023-02-22T08:00:56;98552.78;;;7.62;100.00
23446;BME280;11895;48.738;9.320;2023-02-22T08:03:25;98551.81;;;7.41;100.00
23446;BME280;11895;48.738;9.320;2023-02-22T08:05:56;98551.47;;;7.74;100.00
23446;BME280;11895;48.738;9.320;2023-02-22T08:08:26;98553.81;;;7.82;100.00
23446;BME280;11895;48.738;9.320;2023-02-22T08:10:55;98541.78;;;7.92;100.00
23446;BME280;11895;48.738;9.320;2023-02-22T08:13:22;98551.19;;;8.02;100.00
23446;BME280;11895;48.738;9.320;2023-02-22T08:15:52;98548.97;;;8.13;100.00
23446;BME280;11895;48.738;9.320;2023-02-22T08:18:21;98542.97;;;8.07;100.00
23446;BME280;11895;48.738;9.320;2023-02-22T08:20:50;98549.94;;;7.67;100.00
23446;BME280;11895;48.738;9.320;2023-02-22T08:23:20;98543.84;;;7.85;100.00
23446;BME280;11895;48.738;9.320;2023-02-22T08:25:50;98548.13;;;8.13;100.00
23446;BME280;11895;48.738;9.320;2023-02-22T08:28:20;98544.53;;;7.90;100.00
23446;BME280;11895;48.738;9.320;2023-02-22T08:30:50;98539.50;;;8.05;100.00
23446;BME280;11895;48.738;9.320;2023-02-22T08:33:18;98542.84;;;8.54;100.00
23446;BME280;11895;48.738;9.320;2023-02-22T08:35:48;98541.84;;;8.56;100.00
23446;BME280;11895;48.738;9.320;2023-02-22T08:38:18;98539.56;;;8.67;100.00
23446;BME280;11895;48.738;9.320;2023-02-22T08:40:56;98543.53;;;8.79;100.00
23446;BME280;11895;48.738;9.320;2023-02-22T08:43:24;98539.91;;;9.00;100.00
23446;BME280;11895;48.738;9.320;2023-02-22T08:45:52;98542.72;;;8.97;100.00
23446;BME280;11895;48.738;9.320;2023-02-22T08:48:23;98541.03;;;9.15;100.00
23446;BME280;11895;48.738;9.320;2023-02-22T08:50:52;98537.72;;;9.09;100.00
23446;BME280;11895;48.738;9.320;2023-02-22T08:53:19;98540.94;;;9.17;100.00
23446;BME280;11895;48.738;9.320;2023-02-22T08:55:47;98535.69;;;9.34;100.00
23446;BME280;11895;48.738;9.320;2023-02-22T08:58:16;98536.00;;;9.66;100.00
23446;BME280;11895;48.738;9.320;2023-02-22T09:00:46;98527.56;;;9.92;100.00
23446;BME280;11895;48.738;9.320;2023-02-22T09:03:14;98526.66;;;10.11;100.00
23446;BME280;11895;48.738;9.320;2023-02-22T09:05:43;98519.50;;;10.28;100.00
23446;BME280;11895;48.738;9.320;2023-02-22T09:08:15;98522.78;;;10.52;100.00
23446;BME280;11895;48.738;9.320;2023-02-22T09:10:43;98515.75;;;10.67;100.00
23446;BME280;11895;48.738;9.320;2023-02-22T09:13:12;98527.97;;;10.74;100.00
23446;BME280;11895;48.738;9.320;2023-02-22T09:15:40;98522.16;;;10.99;100.00
23446;BME280;11895;48.738;9.320;2023-02-22T09:18:10;98518.16;;;11.06;100.00
23446;BME280;11895;48.738;9.320;2023-02-22T09:20:41;98513.53;;;11.26;100.00
23446;BME280;11895;48.738;9.320;2023-02-22T09:23:09;98527.44;;;11.51;100.00
23446;BME280;11895;48.738;9.320;2023-02-22T09:25:37;98515.84;;;11.49;100.00
23446;BME280;11895;48.738;9.320;2023-02-22T09:28:07;98517.72;;;11.80;100.00
23446;BME280;11895;48.738;9.320;2023-02-22T09:30:36;98515.94;;;11.97;100.00
23446;BME280;11895;48.738;9.320;2023-02-22T09:33:07;98512.44;;;12.11;100.00
23446;BME280;11895;48.738;9.320;2023-02-22T09:35:41;98508.47;;;12.32;100.00
23446;BME280;11895;48.738;9.320;2023-02-22T09:38:16;98512.03;;;12.48;97.57
23446;BME280;11895;48.738;9.320;2023-02-22T09:40:49;98505.78;;;12.32;97.23
23446;BME280;11895;48.738;9.320;2023-02-22T09:49:05;98511.75;;;12.83;91.74
23446;BME280;11895;48.738;9.320;2023-02-22T09:51:56;98508.78;;;12.57;95.49
23446;BME280;11895;48.738;9.320;2023-02-22T09:54:28;98506.59;;;12.64;94.98
23446;BME280;11895;48.738;9.320;2023-02-22T09:57:09;98506.53;;;12.80;96.70
23446;BME280;11895;48.738;9.320;2023-02-22T10:00:20;98510.81;;;12.98;97.24
23446;BME280;11895;48.738;9.320;2023-02-22T10:03:09;98511.44;;;13.18;92.75
23446;BME280;11895;48.738;9.320;2023-02-22T10:06:00;98507.22;;;13.28;93.97
23446;BME280;11895;48.738;9.320;2023-02-22T10:08:35;98504.78;;;13.23;91.63
23446;BME280;11895;48.738;9.320;2023-02-22T10:17:23;98492.16;;;13.52;90.94
23446;BME280;11895;48.738;9.320;2023-02-22T10:25:26;98486.72;;;13.67;93.62
23446;BME280;11895;48.738;9.320;2023-02-22T10:28:23;98487.38;;;13.84;90.61
23446;BME280;11895;48.738;9.320;2023-02-22T10:31:03;98489.50;;;13.94;90.97
23446;BME280;11895;48.738;9.320;2023-02-22T10:34:16;98473.03;;;14.24;88.19
23446;BME280;11895;48.738;9.320;2023-02-22T10:36:50;98478.22;;;14.41;89.46
23446;BME280;11895;48.738;9.320;2023-02-22T10:39:32;98474.41;;;14.71;85.22
23446;BME280;11895;48.738;9.320;2023-02-22T10:42:04;98467.91;;;14.86;82.47
23446;BME280;11895;48.738;9.320;2023-02-22T10:44:38;98470.75;;;14.97;81.85
23446;BME280;11895;48.738;9.320;2023-02-22T10:47:13;98466.09;;;15.25;77.06
23446;BME280;11895;48.738;9.320;2023-02-22T10:49:54;98460.78;;;15.23;79.97
23446;BME280;11895;48.738;9.320;2023-02-22T10:52:29;98464.78;;;15.43;76.92
23446;BME280;11895;48.738;9.320;2023-02-22T10:55:01;98456.84;;;15.65;79.13
23446;BME280;11895;48.738;9.320;2023-02-22T10:57:44;98457.00;;;15.88;71.75
23446;BME280;11895;48.738;9.320;2023-02-22T11:00:43;98454.31;;;16.12;70.74
23446;BME280;11895;48.738;9.320;2023-02-22T11:05:48;98444.44;;;16.70;67.18
23446;BME280;11895;48.738;9.320;2023-02-22T11:08:24;98443.78;;;16.90;64.41
23446;BME280;11895;48.738;9.320;2023-02-22T11:10:56;98445.69;;;17.12;60.77
23446;BME280;11895;48.738;9.320;2023-02-22T11:13:36;98441.75;;;17.16;59.73
23446;BME280;11895;48.738;9.320;2023-02-22T11:16:27;98429.25;;;17.36;60.44
23446;BME280;11895;48.738;9.320;2023-02-22T11:21:39;98433.94;;;17.68;61.02
23446;BME280;11895;48.738;9.320;2023-02-22T11:24:09;98426.00;;;17.87;61.09
23446;BME280;11895;48.738;9.320;2023-02-22T11:26:48;98421.91;;;18.04;55.69
23446;BME280;11895;48.738;9.320;2023-02-22T11:32:13;98423.34;;;18.08;54.33
23446;BME280;11895;48.738;9.320;2023-02-22T11:34:48;98417.50;;;18.24;58.78
23446;BME280;11895;48.738;9.320;2023-02-22T11:37:35;98409.28;;;18.35;54.99
23446;BME280;11895;48.738;9.320;2023-02-22T11:43:35;98401.28;;;18.75;52.11
23446;BME280;11895;48.738;9.320;2023-02-22T11:48:32;98401.00;;;18.58;54.27
23446;BME280;11895;48.738;9.320;2023-02-22T12:06:23;98379.44;;;19.17;53.45
23446;BME280;11895;48.738;9.320;2023-02-22T12:09:34;98380.47;;;18.95;51.79
23446;BME280;11895;48.738;9.320;2023-02-22T12:16:07;98367.03;;;18.83;55.43
23446;BME280;11895;48.738;9.320;2023-02-22T12:21:43;98357.75;;;18.95;51.75
23446;BME280;11895;48.738;9.320;2023-02-22T12:24:22;98367.97;;;19.23;56.64
23446;BME280;11895;48.738;9.320;2023-02-22T12:27:01;98363.47;;;19.53;53.22
23446;BME280;11895;48.738;9.320;2023-02-22T12:29:49;98363.34;;;19.55;51.60
23446;BME280;11895;48.738;9.320;2023-02-22T12:32:45;98365.41;;;19.32;50.88
23446;BME280;11895;48.738;9.320;2023-02-22T12:35:33;98368.59;;;19.37;51.64
23446;BME280;11895;48.738;9.320;2023-02-22T12:38:38;98358.00;;;19.53;49.70
23446;BME280;11895;48.738;9.320;2023-02-22T12:41:36;98368.19;;;19.82;48.58
23446;BME280;11895;48.738;9.320;2023-02-22T12:44:19;98359.91;;;20.02;47.83
23446;BME280;11895;48.738;9.320;2023-02-22T12:46:54;98360.19;;;20.09;47.76
23446;BME280;11895;48.738;9.320;2023-02-22T12:49:50;98359.94;;;20.51;47.03
23446;BME280;11895;48.738;9.320;2023-02-22T12:52:56;98360.75;;;20.90;45.21
23446;BME280;11895;48.738;9.320;2023-02-22T12:55:47;98353.91;;;20.47;46.17
23446;BME280;11895;48.738;9.320;2023-02-22T12:58:34;98346.59;;;21.04;45.18
23446;BME280;11895;48.738;9.320;2023-02-22T13:01:37;98347.13;;;21.18;44.04
23446;BME280;11895;48.738;9.320;2023-02-22T13:04:09;98350.72;;;20.52;45.15
23446;BME280;11895;48.738;9.320;2023-02-22T13:10:37;98353.59;;;20.70;44.00
23446;BME280;11895;48.738;9.320;2023-02-22T13:16:47;98344.44;;;21.08;42.39
23446;BME280;11895;48.738;9.320;2023-02-22T13:19:50;98344.38;;;21.18;42.42
23446;BME280;11895;48.738;9.320;2023-02-22T13:22:28;98349.50;;;20.84;43.10
23446;BME280;11895;48.738;9.320;2023-02-22T13:28:35;98344.16;;;21.76;41.64
23446;BME280;11895;48.738;9.320;2023-02-22T13:40:23;98334.72;;;25.04;33.49
23446;BME280;11895;48.738;9.320;2023-02-22T13:43:21;98339.41;;;25.75;32.43
23446;BME280;11895;48.738;9.320;2023-02-22T13:46:35;98337.69;;;26.82;30.94
23446;BME280;11895;48.738;9.320;2023-02-22T13:52:43;98326.00;;;27.48;29.60
23446;BME280;11895;48.738;9.320;2023-02-22T13:55:25;98329.59;;;26.58;30.23
23446;BME280;11895;48.738;9.320;2023-02-22T13:58:05;98330.06;;;26.84;30.43
23446;BME280;11895;48.738;9.320;2023-02-22T14:00:46;98322.97;;;26.44;30.30
23446;BME280;11895;48.738;9.320;2023-02-22T14:05:52;98324.97;;;26.27;30.88
23446;BME280;11895;48.738;9.320;2023-02-22T14:16:27;98337.63;;;24.21;33.04
23446;BME280;11895;48.738;9.320;2023-02-22T14:19:18;98326.97;;;24.26;33.95
23446;BME280;11895;48.738;9.320;2023-02-22T14:22:03;98325.31;;;23.82;34.65
23446;BME280;11895;48.738;9.320;2023-02-22T14:24:56;98320.72;;;23.91;33.65
23446;BME280;11895;48.738;9.320;2023-02-22T14:27:23;98323.94;;;23.70;34.35
23446;BME280;11895;48.738;9.320;2023-02-22T14:29:57;98325.59;;;23.29;34.46
23446;BME280;11895;48.738;9.320;2023-02-22T14:32:34;98329.16;;;23.21;34.56
23446;BME280;11895;48.738;9.320;2023-02-22T14:35:12;98329.53;;;22.56;36.04
23446;BME280;11895;48.738;9.320;2023-02-22T14:37:58;98324.41;;;22.79;37.04
23446;BME280;11895;48.738;9.320;2023-02-22T14:40:30;98322.97;;;22.31;37.29
23446;BME280;11895;48.738;9.320;2023-02-22T14:43:21;98329.22;;;22.24;38.00
23446;BME280;11895;48.738;9.320;2023-02-22T14:45:56;98326.34;;;21.80;39.63
23446;BME280;11895;48.738;9.320;2023-02-22T14:48:40;98322.72;;;21.62;39.19
23446;BME280;11895;48.738;9.320;2023-02-22T14:51:39;98314.19;;;21.65;39.77
23446;BME280;11895;48.738;9.320;2023-02-22T14:57:43;98317.63;;;21.02;40.33
23446;BME280;11895;48.738;9.320;2023-02-22T15:00:17;98322.31;;;20.43;41.84
23446;BME280;11895;48.738;9.320;2023-02-22T15:03:00;98325.50;;;20.00;43.45
23446;BME280;11895;48.738;9.320;2023-02-22T15:05:35;98319.88;;;20.11;43.12
23446;BME280;11895;48.738;9.320;2023-02-22T15:08:07;98320.13;;;19.60;44.70
23446;BME280;11895;48.738;9.320;2023-02-22T15:13:05;98315.84;;;20.35;42.80
23446;BME280;11895;48.738;9.320;2023-02-22T15:16:00;98329.69;;;20.33;42.38
23446;BME280;11895;48.738;9.320;2023-02-22T15:18:48;98315.28;;;20.41;42.06
23446;BME280;11895;48.738;9.320;2023-02-22T15:21:27;98324.78;;;20.37;42.31
23446;BME280;11895;48.738;9.320;2023-02-22T15:24:01;98329.09;;;20.29;42.28
23446;BME280;11895;48.738;9.320;2023-02-22T15:26:40;98317.03;;;20.22;42.22
23446;BME280;11895;48.738;9.320;2023-02-22T15:29:35;98321.63;;;19.93;43.07
23446;BME280;11895;48.738;9.320;2023-02-22T15:32:19;98325.22;;;19.93;43.53
23446;BME280;11895;48.738;9.320;2023-02-22T15:37:46;98323.50;;;19.52;45.87
23446;BME280;11895;48.738;9.320;2023-02-22T15:40:19;98324.25;;;19.54;47.29
23446;BME280;11895;48.738;9.320;2023-02-22T15:42:50;98326.59;;;19.28;48.51
23446;BME280;11895;48.738;9.320;2023-02-22T15:45:45;98318.50;;;19.17;50.29